Time;durP1;ratioP1;P1;durP2;ratioP2;P2;SDS_P1;SDS_P2;PMS_P1;PMS_P2;Temp;Humidity;BMP_temperature;BMP_pressure;BME280_temperature;BME280_humidity;BME280_pressure;Samples;Min_cycle;Max_cycle;Signal;HPM_P1;HPM_P2
2024/04/12 00:01:50;;;;;;;3.53;2.58;;;15.10;95.00;;;;;;5347242;26;20008;-64
2024/04/12 00:04:17;;;;;;;4.90;3.00;;;15.10;94.90;;;;;;5361995;26;20056;-64
2024/04/12 00:06:43;;;;;;;5.43;3.40;;;15.10;94.90;;;;;;5358288;26;20019;-65
2024/04/12 00:09:09;;;;;;;6.22;4.10;;;15.10;94.90;;;;;;5363102;26;20008;-64
2024/04/12 00:11:38;;;;;;;4.25;3.28;;;15.10;94.90;;;;;;5374189;26;19996;-64
2024/04/12 00:14:05;;;;;;;3.65;3.00;;;15.10;95.20;;;;;;5366096;26;21054;-64
2024/04/12 00:16:31;;;;;;;5.25;3.15;;;15.20;94.90;;;;;;5366680;26;20008;-65
2024/04/12 00:19:12;;;;;;;9.05;5.53;;;15.20;94.80;;;;;;5360198;26;20001;-65
2024/04/12 00:21:41;;;;;;;10.63;5.70;;;15.20;94.90;;;;;;5365060;26;20046;-64
2024/04/12 00:24:10;;;;;;;7.28;4.93;;;15.10;94.90;;;;;;5357701;26;20043;-64
2024/04/12 00:26:36;;;;;;;6.07;4.10;;;15.10;95.00;;;;;;5366536;26;20459;-64
2024/04/12 00:29:02;;;;;;;5.45;4.00;;;15.10;94.90;;;;;;5353394;26;20015;-64
2024/04/12 00:31:28;;;;;;;10.95;5.57;;;15.20;94.90;;;;;;5360549;26;20001;-65
2024/04/12 00:34:04;;;;;;;9.38;6.15;;;15.10;94.90;;;;;;5372197;26;20458;-65
2024/04/12 00:36:30;;;;;;;8.55;4.90;;;15.10;94.90;;;;;;5361727;26;20473;-65
2024/04/12 00:38:55;;;;;;;8.55;4.95;;;15.10;95.00;;;;;;5368821;26;20000;-65
2024/04/12 00:41:24;;;;;;;5.75;4.20;;;15.10;95.00;;;;;;5371440;26;19996;-65
2024/04/12 00:43:52;;;;;;;6.25;3.90;;;15.10;95.00;;;;;;5366763;26;20395;-65
2024/04/12 00:46:28;;;;;;;5.90;3.92;;;15.10;95.00;;;;;;5369493;26;19999;-65
2024/04/12 00:48:58;;;;;;;5.45;3.47;;;15.10;95.00;;;;;;5359616;26;20010;-65
2024/04/12 00:51:27;;;;;;;4.90;3.40;;;15.10;94.90;;;;;;5361087;26;20051;-66
2024/04/12 00:53:58;;;;;;;5.63;3.40;;;15.10;94.90;;;;;;5359861;26;20425;-65
2024/04/12 00:56:27;;;;;;;5.20;3.35;;;15.10;95.00;;;;;;5366623;26;20012;-65
2024/04/12 00:58:55;;;;;;;6.40;4.50;;;15.10;94.90;;;;;;5361480;26;20011;-65
2024/04/12 01:01:22;;;;;;;8.02;5.15;;;15.10;94.90;;;;;;5371532;26;20069;-65
2024/04/12 01:03:54;;;;;;;7.93;5.20;;;15.10;94.90;;;;;;5357795;26;20012;-64
2024/04/12 01:06:24;;;;;;;9.88;5.90;;;15.00;94.90;;;;;;5363060;26;20467;-65
2024/04/12 01:08:51;;;;;;;10.77;6.45;;;15.00;95.00;;;;;;5356730;26;20023;-66
2024/04/12 01:11:21;;;;;;;9.98;6.45;;;15.00;95.10;;;;;;5346574;26;20000;-65
2024/04/12 01:13:49;;;;;;;8.48;5.80;;;14.90;95.20;;;;;;5360032;26;20414;-64
2024/04/12 01:16:15;;;;;;;7.57;4.43;;;14.90;95.20;;;;;;5370496;26;20082;-65
2024/04/12 01:18:44;;;;;;;6.93;4.63;;;15.00;95.20;;;;;;5374129;26;20004;-64
2024/04/12 01:21:10;;;;;;;8.20;4.18;;;14.90;95.20;;;;;;5373042;26;20019;-65
2024/04/12 01:23:40;;;;;;;6.60;4.30;;;15.00;95.10;;;;;;5369671;26;20014;-65
2024/04/12 01:26:09;;;;;;;6.75;4.50;;;15.00;95.10;;;;;;5379689;26;20000;-66
2024/04/12 01:28:39;;;;;;;9.85;6.15;;;15.00;95.00;;;;;;5375299;26;20012;-65
2024/04/12 01:31:05;;;;;;;8.20;5.80;;;15.00;95.00;;;;;;5361618;26;20160;-66
2024/04/12 01:33:33;;;;;;;11.93;7.40;;;15.00;95.00;;;;;;5374945;26;20462;-65
2024/04/12 01:36:04;;;;;;;10.52;7.18;;;14.90;95.10;;;;;;5371424;26;19997;-66
2024/04/12 01:38:37;;;;;;;10.95;6.75;;;14.90;95.10;;;;;;5374576;26;20637;-66
2024/04/12 01:41:08;;;;;;;12.60;8.35;;;14.90;95.10;;;;;;5360934;26;19997;-66
2024/04/12 01:43:38;;;;;;;10.52;6.93;;;14.90;95.20;;;;;;5362443;26;20506;-66
2024/04/12 01:46:07;;;;;;;10.85;6.88;;;14.90;95.20;;;;;;5352052;26;20015;-65
2024/04/12 01:48:36;;;;;;;9.55;6.07;;;14.90;95.20;;;;;;5349437;26;19993;-67
2024/04/12 01:51:03;;;;;;;8.93;5.78;;;14.90;95.20;;;;;;5344626;26;20016;-66
2024/04/12 01:53:40;;;;;;;6.95;4.80;;;14.90;95.10;;;;;;5355369;26;20459;-65
2024/04/12 01:56:09;;;;;;;8.23;5.38;;;14.90;95.10;;;;;;5359490;26;20082;-66
2024/04/12 01:58:38;;;;;;;8.30;4.95;;;14.90;95.00;;;;;;5369716;26;20011;-65
2024/04/12 02:01:04;;;;;;;7.10;4.57;;;14.90;95.00;;;;;;5347759;26;20115;-65
2024/04/12 02:03:30;;;;;;;7.15;4.65;;;15.00;95.00;;;;;;5355447;26;19997;-65
2024/04/12 02:05:56;;;;;;;6.88;3.88;;;15.00;95.00;;;;;;5353360;26;20445;-65
2024/04/12 02:08:24;;;;;;;6.35;4.00;;;15.00;95.00;;;;;;5353455;26;20015;-65
2024/04/12 02:10:50;;;;;;;7.07;4.82;;;15.00;94.90;;;;;;5352249;26;20008;-65
2024/04/12 02:13:22;;;;;;;8.30;5.60;;;15.00;94.90;;;;;;5353181;26;20083;-65
2024/04/12 02:15:51;;;;;;;6.10;4.35;;;15.00;94.90;;;;;;5359698;26;20317;-66
2024/04/12 02:18:19;;;;;;;8.07;5.20;;;14.90;94.90;;;;;;5358545;26;20000;-64
2024/04/12 02:20:46;;;;;;;7.13;4.43;;;15.00;95.20;;;;;;5348613;26;20001;-65
2024/04/12 02:23:16;;;;;;;7.55;4.95;;;14.90;94.80;;;;;;5352402;26;19997;-65
2024/04/12 02:25:43;;;;;;;9.30;5.65;;;14.90;94.90;;;;;;5362377;26;20008;-65
2024/04/12 02:28:11;;;;;;;7.68;4.85;;;15.00;94.90;;;;;;5347166;26;19997;-65
2024/04/12 02:30:43;;;;;;;7.55;4.93;;;15.00;94.80;;;;;;5349517;26;19996;-66
2024/04/12 02:33:09;;;;;;;6.30;3.78;;;14.90;94.80;;;;;;5366064;26;20482;-64
2024/04/12 02:35:41;;;;;;;11.88;7.50;;;15.00;94.80;;;;;;5367702;26;20012;-66
2024/04/12 02:38:15;;;;;;;;;;;14.90;94.80;;;;;;5367491;26;19996;-64
2024/04/12 02:40:44;;;;;;;10.43;6.60;;;14.90;94.90;;;;;;5352816;26;19926;-65
2024/04/12 02:43:14;;;;;;;9.30;5.32;;;14.80;94.90;;;;;;5352657;26;19997;-63
2024/04/12 02:45:47;;;;;;;7.72;4.68;;;14.80;94.90;;;;;;5362564;26;20008;-65
2024/04/12 02:48:13;;;;;;;8.32;5.38;;;14.80;95.00;;;;;;5359458;26;19993;-65
2024/04/12 02:50:39;;;;;;;7.60;4.88;;;14.80;94.90;;;;;;5362980;26;20497;-65
2024/04/12 02:53:05;;;;;;;9.05;6.28;;;14.80;94.90;;;;;;5344314;26;19997;-65
2024/04/12 02:55:31;;;;;;;10.60;6.82;;;14.80;94.90;;;;;;5345964;26;20082;-65
2024/04/12 02:57:57;;;;;;;7.68;5.43;;;14.80;94.90;;;;;;5355420;26;19998;-65
2024/04/12 03:00:23;;;;;;;7.13;4.15;;;14.80;94.90;;;;;;5360778;26;20020;-66
2024/04/12 03:02:49;;;;;;;6.13;4.15;;;14.80;94.90;;;;;;5364608;26;19997;-65
2024/04/12 03:05:15;;;;;;;7.28;4.97;;;14.80;94.80;;;;;;5351684;26;20074;-65
2024/04/12 03:07:48;;;;;;;5.32;3.75;;;14.90;94.80;;;;;;5361775;26;20012;-65
2024/04/12 03:10:18;;;;;;;6.03;3.90;;;14.90;94.80;;;;;;5357658;26;20491;-65
2024/04/12 03:12:57;;;;;;;6.25;4.03;;;14.90;94.70;;;;;;5368214;26;20004;-66
2024/04/12 03:15:24;;;;;;;8.30;5.18;;;14.80;94.70;;;;;;5358851;26;20013;-66
2024/04/12 03:17:50;;;;;;;6.05;3.97;;;14.80;94.80;;;;;;5363938;26;20005;-65
2024/04/12 03:20:16;;;;;;;6.38;4.40;;;14.80;94.80;;;;;;5349914;26;20066;-66
2024/04/12 03:22:45;;;;;;;7.60;4.47;;;14.80;94.80;;;;;;5357113;26;20008;-65
2024/04/12 03:25:12;;;;;;;5.82;3.88;;;14.80;94.80;;;;;;5362772;26;20000;-64
2024/04/12 03:27:38;;;;;;;6.72;4.45;;;14.80;94.80;;;;;;5369829;26;20015;-65
2024/04/12 03:30:13;;;;;;;6.95;4.53;;;14.70;94.80;;;;;;5367512;26;20012;-66
2024/04/12 03:32:45;;;;;;;7.80;5.00;;;14.80;94.80;;;;;;5368461;26;20052;-65
2024/04/12 03:35:17;;;;;;;;;;;14.80;94.80;;;;;;5362800;26;19996;-66
2024/04/12 03:38:24;;;;;;;7.40;4.65;;;14.80;94.80;;;;;;5351576;26;20292;-66
2024/04/12 03:40:29;;;;;;;8.00;4.70;;;14.70;94.80;;;;;;5372021;26;20004;-66
2024/04/12 03:43:02;;;;;;;8.15;4.97;;;14.70;94.90;;;;;;5355309;26;20062;-66
2024/04/12 03:45:35;;;;;;;5.50;3.72;;;14.70;94.90;;;;;;5362348;26;20008;-65
2024/04/12 03:48:13;;;;;;;5.88;4.15;;;14.70;94.90;;;;;;5364228;26;20024;-66
2024/04/12 03:50:41;;;;;;;8.63;5.82;;;14.70;94.90;;;;;;5361753;26;20014;-67
2024/04/12 03:53:16;;;;;;;6.60;4.68;;;14.60;94.90;;;;;;5371728;26;20018;-67
2024/04/12 03:55:45;;;;;;;6.57;4.75;;;14.60;94.90;;;;;;5365817;26;20315;-67
2024/04/12 03:58:17;;;;;;;6.45;4.20;;;14.60;94.90;;;;;;5357495;26;20146;-66
2024/04/12 04:00:46;;;;;;;5.22;3.63;;;14.60;94.90;;;;;;5362063;26;20000;-66
2024/04/12 04:03:30;;;;;;;5.47;3.58;;;14.70;94.90;;;;;;5367368;26;20000;-66
2024/04/12 04:05:57;;;;;;;4.93;3.47;;;14.60;94.90;;;;;;5361711;26;20025;-66
2024/04/12 04:08:23;;;;;;;6.35;4.15;;;14.60;94.90;;;;;;5355619;26;20447;-66
2024/04/12 04:10:49;;;;;;;6.40;4.47;;;14.60;95.00;;;;;;5364082;26;20007;-66
2024/04/12 04:13:15;;;;;;;5.55;3.88;;;14.60;95.00;;;;;;5350801;26;20011;-66
2024/04/12 04:15:50;;;;;;;4.63;3.28;;;14.60;95.00;;;;;;5369585;26;20015;-67
2024/04/12 04:18:17;;;;;;;5.10;3.10;;;14.60;94.90;;;;;;5376603;26;20389;-67
2024/04/12 04:20:43;;;;;;;3.80;2.60;;;14.60;95.00;;;;;;5349389;26;20001;-66
2024/04/12 04:23:09;;;;;;;4.10;2.85;;;14.70;94.90;;;;;;5368854;26;20467;-65
2024/04/12 04:25:35;;;;;;;5.65;3.65;;;14.70;94.80;;;;;;5362338;26;20076;-64
2024/04/12 04:28:03;;;;;;;4.10;2.95;;;14.70;94.80;;;;;;5352348;26;20009;-64
2024/04/12 04:30:28;;;;;;;5.55;3.70;;;14.70;94.80;;;;;;5365593;26;19992;-64
2024/04/12 04:32:55;;;;;;;6.57;4.40;;;14.70;94.80;;;;;;5356127;26;20011;-65
2024/04/12 04:35:26;;;;;;;6.22;4.65;;;14.70;94.80;;;;;;5367012;26;19997;-64
2024/04/12 04:37:55;;;;;;;8.27;5.18;;;14.70;94.90;;;;;;5360992;26;20050;-65
2024/04/12 04:40:25;;;;;;;7.72;5.30;;;14.70;94.90;;;;;;5354681;26;20007;-65
2024/04/12 04:42:54;;;;;;;6.28;4.15;;;14.60;95.00;;;;;;5367287;26;20000;-65
2024/04/12 04:45:21;;;;;;;7.95;5.55;;;14.70;95.00;;;;;;5355113;26;20019;-64
2024/04/12 04:47:47;;;;;;;7.07;4.68;;;14.60;95.00;;;;;;5346566;26;20016;-64
2024/04/12 04:50:13;;;;;;;6.88;4.50;;;14.60;95.00;;;;;;5365153;26;20003;-64
2024/04/12 04:52:40;;;;;;;7.38;4.88;;;14.70;95.00;;;;;;5368951;26;20428;-65
2024/04/12 04:55:17;;;;;;;6.15;4.18;;;14.70;95.00;;;;;;5361551;26;20011;-64
2024/04/12 04:57:49;;;;;;;6.55;3.80;;;14.70;95.00;;;;;;5375398;26;20328;-64
2024/04/12 05:00:18;;;;;;;5.78;4.10;;;14.70;95.00;;;;;;5365939;26;20000;-64
2024/04/12 05:02:49;;;;;;;5.40;3.63;;;14.70;95.00;;;;;;5359593;26;20050;-64
2024/04/12 05:05:27;;;;;;;5.38;3.33;;;14.70;95.00;;;;;;5357906;26;20004;-65
2024/04/12 05:07:55;;;;;;;5.82;4.30;;;14.70;95.00;;;;;;5367958;26;20028;-65
2024/04/12 05:10:21;;;;;;;6.25;4.38;;;14.70;95.00;;;;;;5348354;26;19996;-65
2024/04/12 05:12:48;;;;;;;5.32;3.83;;;14.70;95.00;;;;;;5349779;26;20011;-67
2024/04/12 05:18:03;;;;;;;6.03;4.13;;;14.70;95.00;;;;;;5367167;26;20034;-66
2024/04/12 05:20:39;;;;;;;4.72;3.03;;;14.80;95.00;;;;;;5358435;26;20048;-65
2024/04/12 05:23:11;;;;;;;4.63;3.10;;;14.80;95.00;;;;;;5364557;26;19992;-66
2024/04/12 05:25:41;;;;;;;4.45;3.10;;;14.80;94.90;;;;;;5354185;26;20008;-65
2024/04/12 05:28:07;;;;;;;5.35;2.97;;;14.80;94.90;;;;;;5345411;26;20001;-66
2024/04/12 05:30:37;;;;;;;7.00;4.97;;;14.80;94.90;;;;;;5355670;26;20011;-65
2024/04/12 05:33:06;;;;;;;6.70;4.53;;;14.80;94.90;;;;;;5355042;26;20074;-64
2024/04/12 05:35:35;;;;;;;6.90;4.50;;;14.90;95.00;;;;;;5354239;26;20332;-66
2024/04/12 05:38:07;;;;;;;6.75;4.47;;;14.90;95.00;;;;;;5362527;26;20004;-65
2024/04/12 05:40:39;;;;;;;5.22;3.45;;;14.90;95.00;;;;;;5350052;26;20634;-66
2024/04/12 05:43:13;;;;;;;6.93;4.65;;;14.90;94.90;;;;;;5357592;26;20012;-64
2024/04/12 05:45:42;;;;;;;7.28;4.30;;;14.90;94.90;;;;;;5345513;26;20073;-65
2024/04/12 05:48:14;;;;;;;7.10;4.40;;;15.00;94.90;;;;;;5369454;26;20000;-64
2024/04/12 05:50:48;;;;;;;7.55;4.72;;;15.00;94.80;;;;;;5369092;26;20004;-65
2024/04/12 05:53:14;;;;;;;7.55;4.60;;;15.00;94.80;;;;;;5352408;26;20007;-66
2024/04/12 05:55:45;;;;;;;5.90;4.40;;;15.00;94.80;;;;;;5359715;26;20005;-65
2024/04/12 05:58:15;;;;;;;6.00;3.85;;;15.10;94.80;;;;;;5360022;26;20016;-64
2024/04/12 06:00:41;;;;;;;8.27;5.70;;;15.20;94.70;;;;;;5364409;26;20688;-62
2024/04/12 06:03:16;;;;;;;10.25;6.63;;;15.20;94.70;;;;;;5360666;26;20064;-65
2024/04/12 06:05:46;;;;;;;7.65;5.20;;;15.20;94.80;;;;;;5366452;26;20001;-65
2024/04/12 06:08:14;;;;;;;8.68;5.25;;;15.20;94.80;;;;;;5365033;26;20005;-64
2024/04/12 06:10:44;;;;;;;8.95;5.70;;;15.20;94.80;;;;;;5347906;26;20005;-65
2024/04/12 06:13:11;;;;;;;7.30;4.88;;;15.20;94.80;;;;;;5349309;26;20012;-64
2024/04/12 06:15:36;;;;;;;8.85;5.78;;;15.20;94.90;;;;;;5362547;26;20464;-65
2024/04/12 06:18:05;;;;;;;9.23;5.72;;;15.20;94.90;;;;;;5355497;26;20001;-64
2024/04/12 06:20:31;;;;;;;9.20;5.45;;;15.20;95.20;;;;;;5348726;26;20000;-65
2024/04/12 06:23:06;;;;;;;9.15;5.70;;;15.20;95.00;;;;;;5369251;26;20417;-65
2024/04/12 06:25:38;;;;;;;8.70;5.53;;;15.20;95.10;;;;;;5361444;26;20001;-65
2024/04/12 06:28:11;;;;;;;5.97;3.97;;;15.20;95.10;;;;;;5354222;26;20700;-64
2024/04/12 06:30:39;;;;;;;5.53;3.50;;;15.30;95.00;;;;;;5360759;26;20370;-65
2024/04/12 06:33:06;;;;;;;7.63;4.80;;;15.40;94.90;;;;;;5358126;26;20000;-64
2024/04/12 06:35:31;;;;;;;7.28;4.28;;;15.40;94.80;;;;;;5364489;26;20070;-64
2024/04/12 06:37:58;;;;;;;7.32;4.75;;;15.40;94.80;;;;;;5354479;26;19996;-64
2024/04/12 06:40:28;;;;;;;7.28;4.70;;;15.50;94.80;;;;;;5366098;26;20008;-64
2024/04/12 06:42:54;;;;;;;8.82;5.75;;;15.40;94.80;;;;;;5362002;26;20479;-66
2024/04/12 06:45:20;;;;;;;8.57;5.28;;;15.40;94.80;;;;;;5347980;26;20010;-65
2024/04/12 06:47:48;;;;;;;8.05;4.93;;;15.50;94.90;;;;;;5364236;26;20036;-66
2024/04/12 06:50:14;;;;;;;10.13;5.78;;;15.50;94.80;;;;;;5361803;26;20335;-66
2024/04/12 06:52:40;;;;;;;9.27;5.53;;;15.50;94.80;;;;;;5353116;26;20005;-65
2024/04/12 06:55:07;;;;;;;9.23;4.68;;;15.50;94.80;;;;;;5366398;26;20008;-65
2024/04/12 06:57:33;;;;;;;6.93;4.60;;;15.60;94.80;;;;;;5349682;26;20004;-66
2024/04/12 07:00:00;;;;;;;11.02;5.80;;;15.60;94.70;;;;;;5358300;26;20012;-66
2024/04/12 07:02:29;;;;;;;10.52;5.93;;;15.70;94.60;;;;;;5356647;26;20000;-65
2024/04/12 07:04:56;;;;;;;9.40;5.72;;;15.80;94.60;;;;;;5367626;26;20008;-66
2024/04/12 07:07:23;;;;;;;7.20;4.50;;;15.70;94.60;;;;;;5358849;26;20091;-64
2024/04/12 07:09:57;;;;;;;9.13;5.50;;;15.80;94.50;;;;;;5363706;26;19996;-66
2024/04/12 07:12:27;;;;;;;7.72;4.75;;;15.90;94.50;;;;;;5368447;26;20356;-66
2024/04/12 07:14:54;;;;;;;6.82;4.53;;;15.90;94.50;;;;;;5364594;26;20009;-64
2024/04/12 07:17:20;;;;;;;7.20;4.35;;;15.90;94.40;;;;;;5369882;26;20045;-65
2024/04/12 07:19:50;;;;;;;6.45;3.97;;;15.90;94.40;;;;;;5369690;26;20034;-64
2024/04/12 07:22:18;;;;;;;5.68;3.45;;;16.00;94.40;;;;;;5374328;26;20023;-64
2024/04/12 07:24:47;;;;;;;7.57;4.38;;;16.00;94.30;;;;;;5352955;26;20758;-65
2024/04/12 07:27:16;;;;;;;6.40;4.20;;;16.00;94.30;;;;;;5369010;26;20012;-64
2024/04/12 07:29:46;;;;;;;6.50;3.50;;;16.00;94.30;;;;;;5362445;26;20028;-64
2024/04/12 07:32:13;;;;;;;5.35;3.30;;;16.10;94.30;;;;;;5371792;26;20692;-64
2024/04/12 07:34:48;;;;;;;6.25;3.78;;;16.10;94.20;;;;;;5365167;26;20518;-65
2024/04/12 07:37:28;;;;;;;7.07;4.53;;;16.10;94.20;;;;;;5366762;26;20001;-64
2024/04/12 07:40:18;;;;;;;6.22;3.90;;;16.10;94.20;;;;;;5360992;26;20018;-65
2024/04/12 07:42:46;;;;;;;7.80;4.60;;;16.10;94.20;;;;;;5369272;26;20000;-64
2024/04/12 07:45:32;;;;;;;8.23;5.03;;;16.10;94.10;;;;;;5374268;26;20466;-65
2024/04/12 07:48:11;;;;;;;7.43;4.82;;;16.20;94.20;;;;;;5363715;26;20019;-64
2024/04/12 07:50:39;;;;;;;7.03;3.90;;;16.20;94.10;;;;;;5370488;26;20011;-65
2024/04/12 07:53:38;;;;;;;6.88;4.50;;;16.30;94.00;;;;;;5367149;26;20000;-65
2024/04/12 07:58:34;;;;;;;9.70;5.82;;;16.30;93.90;;;;;;5372087;26;20052;-64
2024/04/12 08:01:15;;;;;;;8.00;4.53;;;16.30;93.90;;;;;;5377896;26;20012;-64
2024/04/12 08:04:15;;;;;;;7.10;4.50;;;16.30;93.90;;;;;;5371309;26;20015;-65
2024/04/12 08:06:55;;;;;;;7.68;4.63;;;16.40;93.90;;;;;;5364042;26;20005;-65
2024/04/12 08:09:42;;;;;;;7.00;4.50;;;16.40;93.90;;;;;;5369410;26;20009;-65
2024/04/12 08:12:49;;;;;;;6.15;3.60;;;16.40;93.80;;;;;;5370061;26;20000;-65
2024/04/12 08:15:06;;;;;;;6.45;4.38;;;16.50;93.80;;;;;;5363011;26;19996;-65
2024/04/12 08:17:39;;;;;;;6.75;4.05;;;16.50;93.80;;;;;;5371235;26;20000;-65
2024/04/12 08:20:15;;;;;;;6.32;4.30;;;16.60;93.70;;;;;;5376364;26;20496;-66
2024/04/12 08:22:43;;;;;;;9.05;5.28;;;16.60;93.60;;;;;;5364502;26;20393;-65
2024/04/12 08:25:09;;;;;;;11.05;6.35;;;16.70;93.50;;;;;;5369607;26;20008;-65
2024/04/12 08:27:36;;;;;;;9.70;5.75;;;16.60;93.40;;;;;;5358270;26;20078;-65
2024/04/12 08:30:13;;;;;;;7.80;4.10;;;16.70;93.50;;;;;;5360888;26;20047;-64
2024/04/12 08:32:48;;;;;;;8.18;4.28;;;16.70;93.40;;;;;;5372763;26;19992;-65
2024/04/12 08:35:19;;;;;;;6.72;3.67;;;16.80;93.30;;;;;;5362627;26;20435;-63
2024/04/12 08:37:46;;;;;;;5.05;3.70;;;16.80;93.30;;;;;;5359473;26;20513;-64
2024/04/12 08:40:12;;;;;;;6.63;3.30;;;16.90;93.30;;;;;;5376927;26;20130;-64
2024/04/12 08:42:39;;;;;;;6.57;3.63;;;17.00;93.20;;;;;;5364847;26;20595;-65
2024/04/12 08:45:12;;;;;;;7.78;4.20;;;16.90;93.10;;;;;;5362715;26;20376;-64
2024/04/12 08:47:54;;;;;;;11.00;4.85;;;17.00;93.10;;;;;;5364345;26;20426;-64
2024/04/12 08:50:24;;;;;;;9.35;5.22;;;17.10;93.00;;;;;;5366532;26;20000;-64
2024/04/12 08:52:52;;;;;;;8.27;4.90;;;17.10;92.90;;;;;;5354891;26;20004;-65
2024/04/12 08:55:23;;;;;;;6.38;3.83;;;17.10;92.90;;;;;;5360460;26;20029;-65
2024/04/12 08:57:57;;;;;;;9.77;5.47;;;17.20;92.80;;;;;;5359288;26;20000;-62
2024/04/12 09:00:28;;;;;;;8.98;5.28;;;17.20;92.60;;;;;;5360512;26;20042;-63
2024/04/12 09:03:25;;;;;;;10.98;6.38;;;17.30;92.60;;;;;;5366180;26;20012;-65
2024/04/12 09:05:55;;;;;;;9.48;4.63;;;17.30;92.30;;;;;;5357046;26;20069;-65
2024/04/12 09:08:22;;;;;;;8.48;4.40;;;17.30;92.20;;;;;;5357646;26;20021;-63
2024/04/12 09:10:52;;;;;;;7.53;3.80;;;17.30;92.20;;;;;;5362239;26;20001;-64
2024/04/12 09:13:19;;;;;;;5.45;3.22;;;17.40;92.20;;;;;;5365551;26;20001;-64
2024/04/12 09:15:45;;;;;;;6.93;3.42;;;17.50;92.10;;;;;;5359893;26;20004;-63
2024/04/12 09:18:14;;;;;;;8.18;3.92;;;17.50;92.00;;;;;;5366954;26;20012;-66
2024/04/12 09:20:40;;;;;;;10.30;4.80;;;17.50;92.00;;;;;;5362195;26;20008;-66
2024/04/12 09:23:16;;;;;;;8.15;4.70;;;17.60;91.90;;;;;;5367239;26;20517;-66
2024/04/12 09:25:44;;;;;;;6.88;4.00;;;17.80;91.80;;;;;;5374625;26;20073;-66
2024/04/12 09:28:12;;;;;;;6.95;3.90;;;17.90;91.60;;;;;;5363069;26;20447;-63
2024/04/12 09:33:28;;;;;;;5.57;3.22;;;18.10;91.30;;;;;;5356722;26;20571;-65
2024/04/12 09:36:03;;;;;;;8.95;4.30;;;18.20;91.20;;;;;;5365108;26;20015;-64
2024/04/12 09:38:28;;;;;;;6.60;3.50;;;18.30;91.00;;;;;;5353437;26;20043;-65
2024/04/12 09:41:03;;;;;;;6.93;3.58;;;18.30;90.90;;;;;;5360224;26;20016;-64
2024/04/12 09:43:31;;;;;;;5.60;3.47;;;18.30;91.10;;;;;;5364144;26;20087;-65
2024/04/12 09:46:09;;;;;;;8.88;4.57;;;18.40;90.70;;;;;;5366721;26;20738;-65
2024/04/12 10:39:13;;;;;;;4.55;2.80;;;19.40;87.50;;;;;;5365293;26;20471;-64
2024/04/12 10:41:45;;;;;;;5.28;2.78;;;19.50;87.10;;;;;;5360626;26;20615;-63
2024/04/12 10:44:13;;;;;;;5.53;3.20;;;19.70;86.40;;;;;;5356711;26;20016;-64
2024/04/12 10:46:38;;;;;;;7.45;3.78;;;19.70;86.00;;;;;;5359923;26;20434;-65
2024/04/12 10:49:05;;;;;;;5.25;3.17;;;19.80;85.80;;;;;;5361371;26;20015;-65
2024/04/12 10:51:33;;;;;;;5.00;3.10;;;20.00;85.60;;;;;;5367171;26;20348;-65
2024/04/12 10:53:58;;;;;;;7.38;4.18;;;20.10;85.20;;;;;;5360626;26;20019;-65
2024/04/12 10:56:26;;;;;;;8.02;4.00;;;20.20;84.80;;;;;;5366192;26;20008;-65
2024/04/12 10:58:52;;;;;;;7.30;4.22;;;20.30;84.10;;;;;;5361027;26;20365;-65
2024/04/12 11:01:22;;;;;;;6.95;3.30;;;20.30;83.20;;;;;;5365279;26;20001;-64
2024/04/12 11:03:56;;;;;;;5.70;2.77;;;20.40;83.30;;;;;;5359650;26;19996;-65
2024/04/12 11:06:32;;;;;;;3.70;2.47;;;20.40;83.40;;;;;;5358620;26;20260;-65
2024/04/12 11:08:59;;;;;;;3.88;2.60;;;20.50;83.30;;;;;;5364839;26;20008;-65
2024/04/12 11:11:33;;;;;;;7.45;3.50;;;20.60;83.20;;;;;;5363127;26;20000;-65
2024/04/12 11:13:59;;;;;;;5.05;3.08;;;20.70;82.50;;;;;;5370241;26;20019;-64
2024/04/12 11:33:04;;;;;;;3.42;2.20;;;21.10;79.70;;;;;;5359890;26;20490;-65
2024/04/12 11:35:30;;;;;;;2.75;1.80;;;21.30;79.60;;;;;;5359557;26;20026;-65
2024/04/12 11:37:57;;;;;;;3.25;2.25;;;21.30;79.30;;;;;;5364359;26;20023;-65
2024/04/12 11:40:24;;;;;;;2.55;2.03;;;21.30;79.30;;;;;;5365369;26;19996;-65
2024/04/12 11:42:56;;;;;;;2.95;1.77;;;21.30;79.30;;;;;;5357342;26;20005;-63
2024/04/12 11:45:25;;;;;;;3.38;1.75;;;21.50;79.30;;;;;;5362553;26;20057;-64
2024/04/12 11:47:51;;;;;;;5.18;2.38;;;21.60;79.00;;;;;;5361856;26;20001;-64
2024/04/12 11:50:17;;;;;;;5.63;2.58;;;21.50;77.90;;;;;;5368416;26;20144;-65
2024/04/12 11:52:45;;;;;;;3.75;2.20;;;21.60;77.90;;;;;;5365082;26;20015;-65
2024/04/12 11:55:12;;;;;;;3.78;2.45;;;21.70;77.20;;;;;;5364623;26;20027;-63
2024/04/12 11:57:41;;;;;;;2.72;2.00;;;21.60;76.60;;;;;;5370386;26;20146;-66
2024/04/12 12:00:10;;;;;;;4.72;2.08;;;21.70;76.70;;;;;;5366061;26;20012;-65
2024/04/12 12:02:36;;;;;;;5.25;2.70;;;21.90;76.70;;;;;;5369766;26;20018;-64
2024/04/12 12:05:04;;;;;;;5.82;2.60;;;21.90;75.70;;;;;;5364166;26;20033;-62
2024/04/12 12:07:30;;;;;;;4.20;2.40;;;21.80;74.40;;;;;;5370477;26;20070;-64
2024/04/12 12:09:56;;;;;;;5.10;2.30;;;21.70;74.40;;;;;;5364748;26;20481;-64
2024/04/12 12:12:22;;;;;;;4.20;2.00;;;21.60;74.30;;;;;;5369042;26;20019;-64
2024/04/12 12:14:51;;;;;;;2.92;2.15;;;21.60;74.50;;;;;;5369905;26;20029;-64
2024/04/12 12:17:18;;;;;;;3.90;2.25;;;21.60;75.40;;;;;;5364283;26;20345;-63
2024/04/12 12:19:46;;;;;;;4.03;2.05;;;21.60;74.40;;;;;;5366653;26;20008;-64
2024/04/12 12:22:12;;;;;;;3.63;2.17;;;21.70;73.90;;;;;;5365320;26;20015;-64
2024/04/12 12:24:38;;;;;;;4.72;2.40;;;21.70;73.60;;;;;;5367894;26;20442;-63
2024/04/12 12:27:14;;;;;;;4.05;2.40;;;21.80;73.30;;;;;;5367770;26;20001;-63
2024/04/12 12:29:42;;;;;;;3.72;2.17;;;21.70;73.00;;;;;;5360811;26;20005;-64
2024/04/12 12:32:08;;;;;;;4.00;2.10;;;21.80;73.30;;;;;;5365073;26;20011;-64
2024/04/12 12:34:34;;;;;;;3.60;1.90;;;21.90;72.80;;;;;;5364872;26;20028;-63
2024/04/12 12:37:04;;;;;;;3.92;2.10;;;22.10;72.90;;;;;;5366606;26;20173;-64
2024/04/12 12:39:33;;;;;;;4.95;1.77;;;22.10;72.70;;;;;;5361111;26;20443;-63
2024/04/12 12:42:02;;;;;;;2.80;1.98;;;22.20;72.80;;;;;;5364861;26;20084;-66
2024/04/12 12:44:28;;;;;;;3.10;1.70;;;22.30;72.70;;;;;;5367826;26;20004;-65
2024/04/12 12:46:59;;;;;;;2.70;1.48;;;22.30;72.40;;;;;;5364051;26;20397;-64
2024/04/12 12:49:25;;;;;;;2.50;1.70;;;22.30;72.10;;;;;;5356076;26;20361;-64
2024/04/12 12:51:51;;;;;;;3.67;1.70;;;22.30;71.80;;;;;;5362967;26;20004;-64
2024/04/12 12:54:18;;;;;;;1.80;1.40;;;22.40;71.70;;;;;;5359837;26;20008;-64
2024/04/12 12:56:44;;;;;;;3.20;1.05;;;22.40;71.50;;;;;;5353228;26;19997;-64
2024/04/12 12:59:10;;;;;;;1.92;1.10;;;22.50;71.60;;;;;;5352697;26;20079;-65
2024/04/12 13:01:35;;;;;;;2.13;1.40;;;22.70;71.20;;;;;;5364580;26;20444;-64
2024/04/12 13:04:08;;;;;;;1.50;1.20;;;22.70;70.50;;;;;;5358758;26;20008;-63
2024/04/12 13:06:37;;;;;;;3.13;1.50;;;22.70;69.70;;;;;;5362921;26;20324;-64
2024/04/12 13:09:04;;;;;;;2.00;1.30;;;22.60;69.80;;;;;;5353412;26;20000;-64
2024/04/12 13:11:31;;;;;;;2.80;1.42;;;22.60;70.00;;;;;;5356669;26;20043;-63
2024/04/12 13:13:59;;;;;;;3.08;1.40;;;22.70;69.80;;;;;;5354580;26;20450;-65
2024/04/12 13:16:25;;;;;;;2.80;1.45;;;22.70;69.80;;;;;;5352464;26;20009;-65
2024/04/12 13:19:00;;;;;;;2.03;1.00;;;22.70;69.80;;;;;;5349701;26;20008;-65
2024/04/12 13:21:26;;;;;;;1.27;1.00;;;22.80;69.90;;;;;;5352714;26;20039;-64
2024/04/12 13:23:53;;;;;;;1.80;1.13;;;22.70;70.00;;;;;;5361742;26;20028;-65
2024/04/12 13:26:31;;;;;;;2.75;0.88;;;22.70;70.10;;;;;;5367828;26;20012;-65
2024/04/12 13:28:57;;;;;;;1.17;1.00;;;22.90;70.20;;;;;;5360635;26;20077;-64
2024/04/12 13:31:24;;;;;;;1.40;1.10;;;22.90;70.00;;;;;;5365931;26;20000;-64
2024/04/12 13:33:56;;;;;;;3.30;1.42;;;22.80;69.70;;;;;;5351858;26;20448;-64
2024/04/12 13:36:25;;;;;;;2.30;1.20;;;22.80;69.50;;;;;;5360749;26;20060;-64
2024/04/12 13:38:52;;;;;;;1.50;0.98;;;22.80;69.70;;;;;;5363997;26;20004;-63
2024/04/12 13:41:20;;;;;;;2.97;1.10;;;22.80;69.90;;;;;;5353102;26;20012;-64
2024/04/12 13:43:46;;;;;;;1.02;0.90;;;22.70;69.70;;;;;;5346298;26;20001;-63
2024/04/12 13:51:49;;;;;;;1.38;1.00;;;22.60;68.30;;;;;;5353033;26;20019;-63
2024/04/12 13:54:23;;;;;;;1.88;1.00;;;22.50;68.60;;;;;;5355815;26;20014;-65
2024/04/12 13:56:53;;;;;;;1.63;1.10;;;22.30;68.60;;;;;;5366635;26;20476;-63
2024/04/12 13:59:18;;;;;;;0.90;0.80;;;22.30;68.30;;;;;;5353789;26;20004;-64
2024/04/12 14:01:45;;;;;;;1.23;0.90;;;22.20;68.60;;;;;;5361681;26;20019;-64
2024/04/12 14:04:17;;;;;;;2.35;1.48;;;22.30;68.70;;;;;;5364497;26;20078;-65
2024/04/12 14:06:46;;;;;;;2.05;1.02;;;22.20;68.50;;;;;;5372332;26;20015;-65
2024/04/12 14:09:13;;;;;;;1.52;1.02;;;22.20;68.10;;;;;;5365603;26;20019;-64
2024/04/12 14:11:42;;;;;;;1.00;0.90;;;22.20;68.40;;;;;;5364655;26;20078;-63
2024/04/12 14:14:08;;;;;;;2.92;1.52;;;22.40;68.40;;;;;;5364183;26;20004;-63
2024/04/12 14:16:41;;;;;;;3.67;2.17;;;22.60;67.50;;;;;;5355302;26;20018;-64
2024/04/12 14:19:17;;;;;;;2.28;1.38;;;22.70;67.10;;;;;;5357138;26;20077;-64